createdAt,value
2019-01-23T00:00:20.997Z,-0.10
2019-01-23T00:02:49.558Z,-0.10
2019-01-23T00:05:18.033Z,-0.20
2019-01-23T00:07:46.514Z,-0.20
2019-01-23T00:10:15.005Z,-0.40
2019-01-23T00:12:43.476Z,-0.50
2019-01-23T00:15:12.044Z,-0.40
2019-01-23T00:17:40.528Z,-0.40
2019-01-23T00:20:09.337Z,-0.40
2019-01-23T00:22:37.885Z,-0.40
2019-01-23T00:25:08.622Z,-0.30
2019-01-23T00:27:37.170Z,-0.30
2019-01-23T00:30:08.751Z,-0.30
2019-01-23T00:32:37.301Z,-0.20
2019-01-23T00:35:07.144Z,-0.20
2019-01-23T00:37:35.622Z,-0.20
2019-01-23T00:40:09.828Z,-0.20
2019-01-23T00:42:38.377Z,-0.20
2019-01-23T00:45:10.284Z,-0.20
2019-01-23T00:47:38.915Z,-0.20
2019-01-23T00:50:09.668Z,-0.10
2019-01-23T00:52:38.217Z,-0.10
2019-01-23T00:55:15.840Z,-0.10
2019-01-23T00:57:44.320Z,-0.10
2019-01-23T01:00:18.925Z,0.00
2019-01-23T01:02:47.476Z,0.00
2019-01-23T01:05:16.878Z,0.00
2019-01-23T01:07:45.498Z,0.10
2019-01-23T01:10:16.819Z,0.10
2019-01-23T01:12:45.457Z,-0.10
2019-01-23T01:15:14.664Z,-0.10
2019-01-23T01:17:43.574Z,-0.10
2019-01-23T01:20:14.009Z,-0.10
2019-01-23T01:22:42.721Z,-0.10
2019-01-23T01:25:14.051Z,0.00
2019-01-23T01:27:43.264Z,0.10
2019-01-23T01:30:17.272Z,0.10
2019-01-23T01:32:45.829Z,0.20
2019-01-23T01:35:14.373Z,0.20
2019-01-23T01:37:42.943Z,0.10
2019-01-23T01:40:14.064Z,0.10
2019-01-23T01:42:42.610Z,0.00
2019-01-23T01:45:12.716Z,-0.10
2019-01-23T01:47:41.262Z,-0.10
2019-01-23T01:50:12.952Z,-0.10
2019-01-23T01:52:41.565Z,-0.20
2019-01-23T01:55:10.498Z,-0.40
2019-01-23T01:57:39.048Z,-0.50
2019-01-23T02:00:19.329Z,-0.60
2019-01-23T02:02:47.874Z,-0.60
2019-01-23T02:05:16.774Z,-0.60
2019-01-23T02:07:45.457Z,-0.50
2019-01-23T02:10:16.693Z,-0.40
2019-01-23T02:12:45.411Z,-0.40
2019-01-23T02:15:15.225Z,-0.40
2019-01-23T02:17:43.916Z,-0.40
2019-01-23T02:20:18.246Z,-0.50
2019-01-23T02:22:46.860Z,-0.50
2019-01-23T02:25:15.881Z,-0.50
2019-01-23T02:27:45.661Z,-0.60
2019-01-23T02:30:16.978Z,-0.70
2019-01-23T02:32:45.594Z,-0.70
2019-01-23T02:35:14.141Z,-0.80
2019-01-23T02:37:42.707Z,-0.80
2019-01-23T02:40:14.191Z,-0.80
2019-01-23T02:42:42.762Z,-0.30
2019-01-23T02:45:11.799Z,-0.90
2019-01-23T02:47:40.441Z,-1.00
2019-01-23T02:50:10.739Z,-1.00
2019-01-23T02:52:39.311Z,-1.00
2019-01-23T02:55:09.864Z,-1.10
2019-01-23T02:57:38.510Z,-1.10
2019-01-23T03:00:10.261Z,-1.10
2019-01-23T03:02:38.828Z,-1.20
2019-01-23T03:05:10.938Z,-1.20
2019-01-23T03:07:51.761Z,-1.30
2019-01-23T03:10:21.173Z,-1.30
2019-01-23T03:12:49.772Z,-1.40
2019-01-23T03:15:19.034Z,-1.40
2019-01-23T03:17:47.599Z,-1.40
2019-01-23T03:20:17.686Z,-1.40
2019-01-23T03:22:46.256Z,-1.40
2019-01-23T03:25:15.566Z,-1.50
2019-01-23T03:27:44.203Z,-1.50
2019-01-23T03:30:20.953Z,-1.60
2019-01-23T03:32:49.581Z,-1.50
2019-01-23T03:35:18.568Z,-1.50
2019-01-23T03:37:47.218Z,-1.60
2019-01-23T03:40:18.115Z,-1.60
2019-01-23T03:42:46.762Z,-1.70
2019-01-23T03:45:16.745Z,-1.70
2019-01-23T03:47:45.357Z,-1.70
2019-01-23T03:50:15.946Z,-1.70
2019-01-23T03:52:44.448Z,-1.80
2019-01-23T03:55:15.683Z,-1.80
2019-01-23T03:57:44.339Z,-1.80
2019-01-23T04:00:15.205Z,-1.80
2019-01-23T04:02:43.852Z,-1.80
2019-01-23T04:05:13.154Z,-1.80
2019-01-23T04:07:41.725Z,-1.80
2019-01-23T04:10:12.792Z,-1.90
2019-01-23T04:12:41.363Z,-1.90
2019-01-23T04:15:12.674Z,-1.90
2019-01-23T04:17:41.251Z,-1.90
2019-01-23T04:20:15.559Z,-1.90
2019-01-23T04:22:44.265Z,-1.90
2019-01-23T04:25:13.085Z,-2.00
2019-01-23T04:27:41.662Z,-2.00
2019-01-23T04:30:19.001Z,-2.10
2019-01-23T04:32:47.641Z,-2.10
2019-01-23T04:35:16.270Z,-2.10
2019-01-23T04:37:45.021Z,-2.20
2019-01-23T04:40:14.814Z,-2.20
2019-01-23T04:42:43.373Z,-2.20
2019-01-23T04:45:14.310Z,-2.20
2019-01-23T04:47:43.166Z,-2.30
2019-01-23T04:50:14.546Z,-2.30
2019-01-23T04:53:01.368Z,-2.40
2019-01-23T04:55:30.216Z,-2.40
2019-01-23T04:57:58.798Z,-2.40
2019-01-23T05:00:29.338Z,-2.40
2019-01-23T05:02:58.049Z,-2.40
2019-01-23T05:05:26.593Z,-2.40
2019-01-23T05:07:55.104Z,-2.40
2019-01-23T05:10:23.731Z,-2.40
2019-01-23T05:12:52.380Z,-2.40
2019-01-23T05:15:20.857Z,-2.40
2019-01-23T05:17:49.456Z,-2.50
2019-01-23T05:20:18.075Z,-2.50
2019-01-23T05:22:46.574Z,-2.60
2019-01-23T05:25:15.206Z,-2.60
2019-01-23T05:27:43.718Z,-2.60
2019-01-23T05:30:18.390Z,-2.60
2019-01-23T05:32:46.953Z,-2.60
2019-01-23T05:35:16.063Z,-2.60
2019-01-23T05:37:44.694Z,-2.60
2019-01-23T05:40:14.206Z,-2.50
2019-01-23T05:42:43.015Z,-2.50
2019-01-23T05:45:14.161Z,-2.50
2019-01-23T05:47:42.794Z,-2.60
2019-01-23T05:50:14.247Z,-2.60
2019-01-23T05:52:42.859Z,-2.60
2019-01-23T05:55:12.965Z,-2.50
2019-01-23T05:57:41.611Z,-2.60
2019-01-23T06:00:13.725Z,-2.60
2019-01-23T06:02:42.340Z,-2.60
2019-01-23T06:05:11.483Z,-2.60
2019-01-23T06:07:40.170Z,-2.60
2019-01-23T06:10:10.583Z,-2.70
2019-01-23T06:12:39.135Z,-2.60
2019-01-23T06:15:12.402Z,-2.70
2019-01-23T06:17:40.927Z,-2.60
2019-01-23T06:20:12.546Z,-2.60
2019-01-23T06:22:41.037Z,-2.60
2019-01-23T06:25:09.666Z,-2.60
2019-01-23T06:27:38.149Z,-2.70
2019-01-23T06:30:18.275Z,-2.70
2019-01-23T06:32:46.972Z,-2.60
2019-01-23T06:35:16.084Z,-2.60
2019-01-23T06:37:44.635Z,-2.60
2019-01-23T06:40:15.339Z,-2.60
2019-01-23T06:42:43.882Z,-2.60
2019-01-23T06:45:17.176Z,-2.60
2019-01-23T06:47:46.201Z,-2.60
2019-01-23T06:50:17.126Z,-2.70
2019-01-23T06:52:45.821Z,-2.60
2019-01-23T06:55:14.527Z,-2.60
2019-01-23T06:57:43.374Z,-2.60
2019-01-23T07:00:17.717Z,-2.60
2019-01-23T07:02:46.637Z,-2.60
2019-01-23T07:05:16.744Z,-2.60
2019-01-23T07:07:45.680Z,-2.60
2019-01-23T07:10:17.534Z,-2.50
2019-01-23T07:12:47.038Z,-2.50
2019-01-23T07:15:15.754Z,-2.60
2019-01-23T07:17:44.315Z,-2.60
2019-01-23T07:20:16.133Z,-2.60
2019-01-23T07:22:44.746Z,-2.50
2019-01-23T07:25:13.461Z,-2.50
2019-01-23T07:27:41.939Z,-2.50
2019-01-23T07:30:16.265Z,-2.50
2019-01-23T07:32:44.745Z,-2.50
2019-01-23T07:35:13.389Z,-2.50
2019-01-23T07:37:42.014Z,-2.40
2019-01-23T07:40:11.005Z,-2.40
2019-01-23T07:42:39.519Z,-2.40
2019-01-23T07:45:11.153Z,-2.40
2019-01-23T07:47:39.735Z,-2.30
2019-01-23T07:50:10.842Z,-2.20
2019-01-23T07:52:39.489Z,-2.20
2019-01-23T07:55:13.437Z,-2.10
2019-01-23T07:57:42.015Z,-2.00
2019-01-23T08:00:13.723Z,-2.00
2019-01-23T08:02:42.362Z,-2.00
2019-01-23T08:05:19.417Z,-2.00
2019-01-23T08:07:43.976Z,-1.90
2019-01-23T08:10:15.461Z,-1.80
2019-01-23T08:12:43.963Z,-1.80
2019-01-23T08:15:15.727Z,-1.70
2019-01-23T08:17:44.314Z,-1.70
2019-01-23T08:20:15.698Z,-1.60
2019-01-23T08:22:44.247Z,-1.50
2019-01-23T08:25:13.185Z,-1.20
2019-01-23T08:27:41.771Z,-1.10
2019-01-23T08:30:13.567Z,-1.00
2019-01-23T08:32:42.291Z,-0.90
2019-01-23T08:35:11.282Z,-0.90
2019-01-23T08:37:39.880Z,-0.80
2019-01-23T08:40:14.178Z,-0.90
2019-01-23T08:42:42.821Z,-0.80
2019-01-23T08:45:13.275Z,-0.80
2019-01-23T08:47:41.990Z,-0.80
2019-01-23T08:50:16.298Z,-0.80
2019-01-23T08:52:44.876Z,-0.70
2019-01-23T08:55:13.562Z,-0.70
2019-01-23T08:57:42.148Z,-0.70
2019-01-23T09:00:13.979Z,-0.70
2019-01-23T09:02:42.913Z,-0.60
2019-01-23T09:05:11.556Z,-0.60
2019-01-23T09:07:40.194Z,-0.50
2019-01-23T09:10:29.401Z,-0.50
2019-01-23T09:12:57.958Z,-0.50
2019-01-23T09:15:26.643Z,-0.40
2019-01-23T09:17:55.214Z,-0.30
2019-01-23T09:20:43.042Z,-0.10
2019-01-23T09:23:11.626Z,0.10
2019-01-23T09:25:40.160Z,0.30
2019-01-23T09:28:08.660Z,0.50
2019-01-23T09:30:40.147Z,0.50
2019-01-23T09:33:29.556Z,0.40
2019-01-23T09:36:18.334Z,0.40
2019-01-23T09:39:06.605Z,0.50
2019-01-23T09:41:59.640Z,0.70
2019-01-23T09:44:51.155Z,0.80
2019-01-23T09:47:25.271Z,0.90
2019-01-23T09:50:03.174Z,0.90
2019-01-23T09:52:52.619Z,1.00
2019-01-23T09:55:21.160Z,1.20
2019-01-23T09:57:50.499Z,1.20
2019-01-23T10:00:22.297Z,1.30
2019-01-23T10:02:50.941Z,1.40
2019-01-23T10:05:19.568Z,1.30
2019-01-23T10:07:48.119Z,1.40
2019-01-23T10:10:18.835Z,1.40
2019-01-23T10:12:47.384Z,1.30
2019-01-23T10:15:19.353Z,1.40
2019-01-23T10:17:47.816Z,1.60
2019-01-23T10:20:16.376Z,1.50
2019-01-23T10:22:44.921Z,1.30
2019-01-23T10:25:13.562Z,1.30
2019-01-23T10:27:42.121Z,1.50
2019-01-23T10:30:13.864Z,1.50
2019-01-23T10:32:42.403Z,1.70
2019-01-23T10:35:14.123Z,2.00
2019-01-23T10:37:42.666Z,2.00
2019-01-23T10:40:14.784Z,2.00
2019-01-23T10:42:43.514Z,2.10
2019-01-23T10:45:14.313Z,2.20
2019-01-23T10:47:43.776Z,2.30
2019-01-23T10:50:14.940Z,2.30
2019-01-23T10:52:43.625Z,2.30
2019-01-23T10:55:12.568Z,2.30
2019-01-23T10:57:41.520Z,2.40
2019-01-23T11:00:21.496Z,2.70
2019-01-23T11:02:50.172Z,2.90
2019-01-23T11:05:21.319Z,3.10
2019-01-23T11:07:49.930Z,3.30
2019-01-23T11:10:21.334Z,3.40
2019-01-23T11:12:49.970Z,3.30
2019-01-23T11:15:18.629Z,3.30
2019-01-23T11:17:47.460Z,3.40
2019-01-23T11:20:18.364Z,3.80
2019-01-23T11:22:46.901Z,4.10
2019-01-23T11:25:16.241Z,4.10
2019-01-23T11:27:45.729Z,4.20
2019-01-23T11:30:17.202Z,4.10
2019-01-23T11:32:46.004Z,4.00
2019-01-23T11:35:14.943Z,4.10
2019-01-23T11:37:43.500Z,4.20
2019-01-23T11:40:15.306Z,4.40
2019-01-23T11:42:43.924Z,4.70
2019-01-23T11:45:13.360Z,5.00
2019-01-23T11:47:41.968Z,5.30
2019-01-23T11:50:13.379Z,5.70
2019-01-23T11:52:42.728Z,5.90
2019-01-23T11:55:11.577Z,6.00
2019-01-23T11:57:40.185Z,6.30
2019-01-23T12:00:23.328Z,6.40
2019-01-23T12:02:51.869Z,6.20
2019-01-23T12:05:22.302Z,5.70
2019-01-23T12:07:51.029Z,5.60
2019-01-23T12:10:25.775Z,5.60
2019-01-23T12:12:54.321Z,5.60
2019-01-23T12:15:24.535Z,5.70
2019-01-23T12:17:53.087Z,5.80
2019-01-23T12:20:21.947Z,5.70
2019-01-23T12:22:50.565Z,5.70
2019-01-23T12:25:19.133Z,5.70
2019-01-23T12:27:48.084Z,5.70
2019-01-23T12:30:19.929Z,5.40
2019-01-23T12:32:48.416Z,5.40
2019-01-23T12:35:17.429Z,5.40
2019-01-23T12:37:45.976Z,5.30
2019-01-23T12:40:16.193Z,5.10
2019-01-23T12:42:44.813Z,5.10
2019-01-23T12:45:22.470Z,5.20
2019-01-23T12:47:51.039Z,5.10
2019-01-23T12:50:25.304Z,5.20
2019-01-23T12:52:53.922Z,5.30
2019-01-23T12:55:22.479Z,5.20
2019-01-23T12:57:51.000Z,5.30
2019-01-23T13:00:24.741Z,5.30
2019-01-23T13:02:53.451Z,5.20
2019-01-23T13:05:22.660Z,5.20
2019-01-23T13:07:51.961Z,5.20
2019-01-23T13:10:22.644Z,5.10
2019-01-23T13:12:51.787Z,5.00
2019-01-23T13:15:25.269Z,4.80
2019-01-23T13:17:54.468Z,4.70
2019-01-23T13:20:24.789Z,4.70
2019-01-23T13:22:53.992Z,4.70
2019-01-23T13:25:24.687Z,4.70
2019-01-23T13:27:53.411Z,4.80
2019-01-23T13:30:24.240Z,4.90
2019-01-23T13:32:53.080Z,4.90
2019-01-23T13:35:24.193Z,4.90
2019-01-23T13:37:52.765Z,4.90
2019-01-23T13:40:24.161Z,5.00
2019-01-23T13:42:52.786Z,5.00
2019-01-23T13:45:22.329Z,4.90
2019-01-23T13:47:50.945Z,4.80
2019-01-23T13:50:19.526Z,4.60
2019-01-23T13:52:48.414Z,4.60
2019-01-23T13:55:22.265Z,4.60
2019-01-23T13:57:50.934Z,4.60
2019-01-23T14:00:22.393Z,4.60
2019-01-23T14:02:50.992Z,4.50
2019-01-23T14:05:19.740Z,4.50
2019-01-23T14:07:48.376Z,4.40
2019-01-23T14:10:17.957Z,4.30
2019-01-23T14:12:46.536Z,4.10
2019-01-23T14:15:24.216Z,4.00
2019-01-23T14:17:52.861Z,3.90
2019-01-23T14:20:21.573Z,3.80
2019-01-23T14:22:50.147Z,3.70
2019-01-23T14:25:18.689Z,3.60
2019-01-23T14:27:47.361Z,3.40
2019-01-23T14:30:18.970Z,3.20
2019-01-23T14:32:47.469Z,3.20
2019-01-23T14:35:16.304Z,3.30
2019-01-23T14:37:44.998Z,3.20
2019-01-23T14:40:13.609Z,3.20
2019-01-23T14:42:42.338Z,3.20
2019-01-23T14:45:19.001Z,3.20
2019-01-23T14:47:48.081Z,3.20
2019-01-23T14:50:18.761Z,3.00
2019-01-23T14:52:48.568Z,2.90
2019-01-23T14:55:17.585Z,2.80
2019-01-23T14:57:46.235Z,2.80
2019-01-23T15:00:20.810Z,2.70
2019-01-23T15:02:49.454Z,2.70
2019-01-23T15:05:18.165Z,2.60
2019-01-23T15:07:46.729Z,2.70
2019-01-23T15:10:17.949Z,2.70
2019-01-23T15:12:46.665Z,2.70
2019-01-23T15:15:16.046Z,2.70
2019-01-23T15:17:44.661Z,2.70
2019-01-23T15:20:25.049Z,2.80
2019-01-23T15:22:53.863Z,2.90
2019-01-23T15:25:22.707Z,2.80
2019-01-23T15:27:51.319Z,2.80
2019-01-23T15:30:22.196Z,2.80
2019-01-23T15:32:52.317Z,2.80
2019-01-23T15:35:21.660Z,2.60
2019-01-23T15:37:50.277Z,2.60
2019-01-23T15:40:21.438Z,2.50
2019-01-23T15:42:50.166Z,2.50
2019-01-23T15:45:19.003Z,2.50
2019-01-23T15:47:47.813Z,2.50
2019-01-23T15:50:25.388Z,2.60
2019-01-23T15:52:54.255Z,2.50
2019-01-23T15:55:24.907Z,2.40
2019-01-23T15:57:53.869Z,2.30
2019-01-23T16:00:27.783Z,2.10
2019-01-23T16:02:57.042Z,1.90
2019-01-23T16:05:25.703Z,1.90
2019-01-23T16:07:54.735Z,2.00
2019-01-23T16:10:28.854Z,2.00
2019-01-23T16:12:57.834Z,2.00
2019-01-23T16:15:30.259Z,2.00
2019-01-23T16:17:59.116Z,2.00
2019-01-23T16:20:27.924Z,2.10
2019-01-23T16:22:57.081Z,2.10
2019-01-23T16:25:26.298Z,2.10
2019-01-23T16:27:55.461Z,2.10
2019-01-23T16:30:30.430Z,2.10
2019-01-23T16:32:59.202Z,2.10
2019-01-23T16:35:28.165Z,2.10
2019-01-23T16:37:56.886Z,2.00
2019-01-23T16:40:25.692Z,2.00
2019-01-23T16:42:54.563Z,2.00
2019-01-23T16:45:24.272Z,2.00
2019-01-23T16:47:53.121Z,2.00
2019-01-23T16:50:25.173Z,2.00
2019-01-23T16:52:54.225Z,2.00
2019-01-23T16:55:23.284Z,2.10
2019-01-23T16:57:52.584Z,2.10
2019-01-23T17:00:23.549Z,2.00
2019-01-23T17:02:53.325Z,2.10
2019-01-23T17:05:25.131Z,2.00
2019-01-23T17:07:54.568Z,2.00
2019-01-23T17:10:25.530Z,2.10
2019-01-23T17:12:54.546Z,2.10
2019-01-23T17:15:23.569Z,2.00
2019-01-23T17:17:52.759Z,2.00
2019-01-23T17:20:30.817Z,2.00
2019-01-23T17:22:59.738Z,2.00
2019-01-23T17:25:28.932Z,2.00
2019-01-23T17:27:57.958Z,2.00
2019-01-23T17:30:27.230Z,2.00
2019-01-23T17:32:56.520Z,1.90
2019-01-23T17:35:25.449Z,1.90
2019-01-23T17:37:54.824Z,1.90
2019-01-23T17:40:26.507Z,1.90
2019-01-23T17:42:55.708Z,1.80
2019-01-23T17:45:30.537Z,1.80
2019-01-23T17:48:00.515Z,1.90
2019-01-23T17:50:29.555Z,1.90
2019-01-23T17:52:58.824Z,1.80
2019-01-23T17:55:33.359Z,1.80
2019-01-23T17:58:02.833Z,1.80
2019-01-23T18:00:33.644Z,1.80
2019-01-23T18:03:02.791Z,1.70
2019-01-23T18:05:31.867Z,1.70
2019-01-23T18:08:00.858Z,1.60
2019-01-23T18:10:30.158Z,1.70
2019-01-23T18:12:59.319Z,1.70
2019-01-23T18:15:34.304Z,1.70
2019-01-23T18:18:03.785Z,1.60
2019-01-23T18:20:32.929Z,1.50
2019-01-23T18:23:02.409Z,1.40
2019-01-23T18:25:31.802Z,1.50
2019-01-23T18:28:01.133Z,1.50
2019-01-23T18:30:39.425Z,1.40
2019-01-23T18:33:11.733Z,1.30
2019-01-23T18:36:00.460Z,1.30
2019-01-23T18:38:58.944Z,1.30
2019-01-23T18:41:33.982Z,1.30
2019-01-23T18:44:22.940Z,1.20
2019-01-23T18:47:07.604Z,1.20
2019-01-23T18:49:45.801Z,1.00
2019-01-23T18:52:16.237Z,1.10
2019-01-23T18:54:46.085Z,1.30
2019-01-23T18:57:29.629Z,1.30
2019-01-23T18:59:59.601Z,1.40
2019-01-23T19:02:29.005Z,1.40
2019-01-23T19:04:58.299Z,1.40
2019-01-23T19:07:28.026Z,1.50
2019-01-23T19:09:58.113Z,1.40
2019-01-23T19:12:27.587Z,1.40
2019-01-23T19:14:57.121Z,1.40
2019-01-23T19:17:26.557Z,1.40
2019-01-23T19:19:56.050Z,1.30
2019-01-23T19:22:25.364Z,1.30
2019-01-23T19:24:54.936Z,1.30
2019-01-23T19:27:24.065Z,1.30
2019-01-23T19:29:53.258Z,1.30
2019-01-23T19:32:22.661Z,1.30
2019-01-23T19:34:52.084Z,1.20
2019-01-23T19:37:21.805Z,1.20
2019-01-23T19:39:50.952Z,1.10
2019-01-23T19:42:20.295Z,1.10
2019-01-23T19:44:49.656Z,1.20
2019-01-23T19:47:19.421Z,1.20
2019-01-23T19:49:49.464Z,1.20
2019-01-23T19:52:19.328Z,1.20
2019-01-23T19:54:48.745Z,1.20
2019-01-23T19:57:18.155Z,1.20
2019-01-23T19:59:48.700Z,1.10
2019-01-23T20:02:18.144Z,1.10
2019-01-23T20:04:47.564Z,1.20
2019-01-23T20:07:16.946Z,1.70
2019-01-23T20:09:46.441Z,1.20
2019-01-23T20:12:17.506Z,1.20
2019-01-23T20:14:47.211Z,1.20
2019-01-23T20:17:16.778Z,1.20
2019-01-23T20:19:46.230Z,1.20
2019-01-23T20:22:15.766Z,1.30
2019-01-23T20:24:45.257Z,1.20
2019-01-23T20:27:14.631Z,1.20
2019-01-23T20:29:43.978Z,1.10
2019-01-23T20:32:13.410Z,1.10
2019-01-23T20:34:42.950Z,1.10
2019-01-23T20:37:13.173Z,1.00
2019-01-23T20:39:42.483Z,1.00
2019-01-23T20:42:11.855Z,1.00
2019-01-23T20:44:41.359Z,1.10
2019-01-23T20:47:10.671Z,1.00
2019-01-23T20:49:39.810Z,1.00
2019-01-23T20:52:09.133Z,0.90
2019-01-23T20:54:38.593Z,1.00
2019-01-23T20:57:07.755Z,0.90
2019-01-23T20:59:36.965Z,0.90
2019-01-23T21:02:06.204Z,0.90
2019-01-23T21:04:36.301Z,0.90
2019-01-23T21:07:05.405Z,0.90
2019-01-23T21:09:34.508Z,0.90
2019-01-23T21:12:03.634Z,0.90
2019-01-23T21:14:32.984Z,0.90
2019-01-23T21:17:02.241Z,0.80
2019-01-23T21:19:32.453Z,0.70
2019-01-23T21:22:01.582Z,0.70
2019-01-23T21:24:31.954Z,0.70
2019-01-23T21:27:00.861Z,0.70
2019-01-23T21:29:29.769Z,0.60
2019-01-23T21:31:59.628Z,0.50
2019-01-23T21:34:28.645Z,0.50
2019-01-23T21:36:57.768Z,0.50
2019-01-23T21:39:26.650Z,0.50
2019-01-23T21:41:55.501Z,0.50
2019-01-23T21:44:24.204Z,0.50
2019-01-23T21:46:53.295Z,0.50
2019-01-23T21:49:22.181Z,0.50
2019-01-23T21:51:50.970Z,0.50
2019-01-23T21:54:19.661Z,0.50
2019-01-23T21:56:48.423Z,0.50
2019-01-23T21:59:17.153Z,0.60
2019-01-23T22:01:45.785Z,0.70
2019-01-23T22:04:14.351Z,0.80
2019-01-23T22:06:42.980Z,0.70
2019-01-23T22:09:11.530Z,0.60
2019-01-23T22:11:43.692Z,0.60
2019-01-23T22:14:10.454Z,0.60
2019-01-23T22:16:39.189Z,0.60
2019-01-23T22:19:07.837Z,0.60
2019-01-23T22:21:36.593Z,0.60
2019-01-23T22:24:05.229Z,0.50
2019-01-23T22:26:33.818Z,0.50
2019-01-23T22:29:02.360Z,0.50
2019-01-23T22:31:31.003Z,0.50
2019-01-23T22:33:59.607Z,0.40
2019-01-23T22:36:28.109Z,0.40
2019-01-23T22:38:56.590Z,0.50
2019-01-23T22:41:25.092Z,0.60
2019-01-23T22:43:53.629Z,0.60
2019-01-23T22:46:22.128Z,0.60
2019-01-23T22:48:50.744Z,0.60
2019-01-23T22:51:19.340Z,0.60
2019-01-23T22:53:47.877Z,0.50
2019-01-23T22:56:16.372Z,0.50
2019-01-23T22:58:44.852Z,0.50
2019-01-23T23:01:16.501Z,0.50
2019-01-23T23:03:45.314Z,0.40
2019-01-23T23:06:14.258Z,0.50
2019-01-23T23:08:42.807Z,0.50
2019-01-23T23:11:11.390Z,0.40
2019-01-23T23:13:39.932Z,0.40
2019-01-23T23:16:08.428Z,0.40
2019-01-23T23:18:36.902Z,0.40
2019-01-23T23:21:05.399Z,0.40
2019-01-23T23:23:33.880Z,0.30
2019-01-23T23:26:02.378Z,0.30
2019-01-23T23:28:30.924Z,0.40
2019-01-23T23:30:59.482Z,0.30
2019-01-23T23:33:27.978Z,0.20
2019-01-23T23:35:56.508Z,0.10
2019-01-23T23:38:25.067Z,0.10
2019-01-23T23:40:53.629Z,0.10
2019-01-23T23:43:22.549Z,0.20
2019-01-23T23:45:51.124Z,0.30
2019-01-23T23:48:19.693Z,0.20
2019-01-23T23:50:49.169Z,0.20
2019-01-23T23:53:17.732Z,0.20
2019-01-23T23:55:46.300Z,0.30
2019-01-23T23:58:14.856Z,0.30
